createdAt,value
2018-03-29T00:02:10.145Z,93320.24
2018-03-29T00:04:38.522Z,93345.02
2018-03-29T00:07:06.888Z,93342.00
2018-03-29T00:09:35.432Z,93353.64
2018-03-29T00:12:03.895Z,93362.42
2018-03-29T00:14:32.259Z,93359.22
2018-03-29T00:17:00.640Z,93378.86
2018-03-29T00:19:29.059Z,93364.84
2018-03-29T00:21:57.444Z,93382.94
2018-03-29T00:24:25.840Z,93380.55
2018-03-29T00:26:54.240Z,93385.52
2018-03-29T00:29:22.627Z,93391.47
2018-03-29T00:31:51.001Z,93393.03
2018-03-29T00:34:19.370Z,93396.53
2018-03-29T00:36:47.780Z,93404.88
2018-03-29T00:39:16.136Z,93436.98
2018-03-29T00:41:44.615Z,93409.35
2018-03-29T00:44:13.028Z,93418.20
2018-03-29T00:46:41.465Z,93418.83
2018-03-29T00:49:09.872Z,93425.71
2018-03-29T00:51:38.253Z,93427.92
2018-03-29T00:54:06.627Z,93423.96
2018-03-29T00:56:34.993Z,93436.33
2018-03-29T00:59:03.364Z,93433.27
2018-03-29T01:01:31.771Z,93447.17
2018-03-29T01:04:00.207Z,93450.36
2018-03-29T01:06:28.599Z,93449.01
2018-03-29T01:08:57.022Z,93463.52
2018-03-29T01:11:25.420Z,93470.81
2018-03-29T01:13:53.814Z,93461.56
2018-03-29T01:16:22.286Z,93466.00
2018-03-29T01:18:50.672Z,93466.38
2018-03-29T01:21:19.080Z,93475.94
2018-03-29T01:23:47.482Z,93465.44
2018-03-29T01:26:15.865Z,93470.70
2018-03-29T01:28:44.269Z,93476.17
2018-03-29T01:31:12.682Z,93489.59
2018-03-29T01:33:41.068Z,93478.98
2018-03-29T01:36:09.438Z,93482.91
2018-03-29T01:38:37.820Z,93479.58
2018-03-29T01:41:06.195Z,93491.31
2018-03-29T01:43:34.812Z,93491.33
2018-03-29T01:46:03.202Z,93488.35
2018-03-29T01:48:31.732Z,93494.14
2018-03-29T01:51:00.131Z,93494.91
2018-03-29T01:53:28.520Z,93497.45
2018-03-29T01:55:56.880Z,93502.64
2018-03-29T01:58:25.243Z,93496.44
2018-03-29T02:00:53.728Z,93493.75
2018-03-29T02:03:22.119Z,93510.52
2018-03-29T02:05:50.489Z,93515.00
2018-03-29T02:08:18.874Z,93513.11
2018-03-29T02:10:47.229Z,93517.84
2018-03-29T02:13:15.592Z,93510.73
2018-03-29T02:15:43.960Z,93519.59
2018-03-29T02:18:12.325Z,93522.81
2018-03-29T02:20:40.690Z,93514.64
2018-03-29T02:23:09.049Z,93515.08
2018-03-29T02:25:37.574Z,93521.48
2018-03-29T02:28:05.949Z,93529.74
2018-03-29T02:30:34.305Z,93526.01
2018-03-29T02:33:02.674Z,93524.38
2018-03-29T02:35:31.036Z,93526.98
2018-03-29T02:37:59.429Z,93532.66
2018-03-29T02:40:27.788Z,93534.78
2018-03-29T02:42:56.215Z,93544.31
2018-03-29T02:45:24.607Z,93539.47
2018-03-29T02:47:52.983Z,93540.38
2018-03-29T02:50:21.398Z,93540.10
2018-03-29T02:52:49.768Z,93540.48
2018-03-29T02:55:18.140Z,93539.45
2018-03-29T02:57:46.515Z,93545.52
2018-03-29T03:00:33.692Z,93537.53
2018-03-29T03:03:02.183Z,93549.44
2018-03-29T03:05:30.604Z,93553.02
2018-03-29T03:07:58.981Z,93557.15
2018-03-29T03:10:27.484Z,93561.31
2018-03-29T03:12:55.844Z,93561.17
2018-03-29T03:15:24.247Z,93563.98
2018-03-29T03:17:52.649Z,93563.41
2018-03-29T03:20:21.035Z,93564.72
2018-03-29T03:22:49.492Z,93574.66
2018-03-29T03:25:17.891Z,93571.61
2018-03-29T03:27:46.251Z,93575.92
2018-03-29T03:30:14.640Z,93577.22
2018-03-29T03:32:43.155Z,93581.73
2018-03-29T03:35:11.547Z,93585.95
2018-03-29T03:37:39.918Z,93593.64
2018-03-29T03:40:08.332Z,93605.19
2018-03-29T03:42:36.726Z,93601.84
2018-03-29T03:45:05.082Z,93609.41
2018-03-29T03:47:33.563Z,93607.15
2018-03-29T03:50:02.009Z,93607.16
2018-03-29T03:52:30.368Z,93613.23
2018-03-29T03:54:58.831Z,93613.65
2018-03-29T03:57:27.230Z,93618.48
2018-03-29T03:59:55.626Z,93618.98
2018-03-29T04:02:24.195Z,93618.70
2018-03-29T04:04:52.555Z,93627.15
2018-03-29T04:07:20.952Z,93629.11
2018-03-29T04:09:49.328Z,93635.88
2018-03-29T04:12:17.828Z,93639.09
2018-03-29T04:14:46.180Z,93643.89
2018-03-29T04:17:14.538Z,93644.42
2018-03-29T04:19:42.973Z,93645.09
2018-03-29T04:22:11.375Z,93656.91
2018-03-29T04:24:39.747Z,93659.22
2018-03-29T04:27:08.107Z,93669.08
2018-03-29T04:29:36.488Z,93669.64
2018-03-29T04:32:04.875Z,93667.55
2018-03-29T04:34:33.332Z,93679.19
2018-03-29T04:37:01.707Z,93673.39
2018-03-29T04:39:30.196Z,93675.20
2018-03-29T04:41:58.558Z,93677.41
2018-03-29T04:44:26.933Z,93676.97
2018-03-29T04:46:55.339Z,93680.13
2018-03-29T04:49:23.711Z,93688.70
2018-03-29T04:51:52.176Z,93691.03
2018-03-29T04:54:20.563Z,93688.53
2018-03-29T04:56:49.039Z,93695.56
2018-03-29T04:59:17.419Z,93703.17
2018-03-29T05:01:45.837Z,93705.30
2018-03-29T05:04:14.289Z,93706.89
2018-03-29T05:06:42.675Z,93715.16
2018-03-29T05:09:11.051Z,93720.98
2018-03-29T05:11:39.432Z,93721.52
2018-03-29T05:14:07.821Z,93715.02
2018-03-29T05:16:36.296Z,93713.66
2018-03-29T05:19:04.685Z,93722.57
2018-03-29T05:21:33.124Z,93721.63
2018-03-29T05:24:01.540Z,93723.73
2018-03-29T05:26:35.574Z,93730.43
2018-03-29T05:29:03.946Z,93733.64
2018-03-29T05:31:32.340Z,93726.16
2018-03-29T05:34:00.844Z,93729.18
2018-03-29T05:36:29.235Z,93728.32
2018-03-29T05:38:57.617Z,93727.92
2018-03-29T05:41:26.000Z,93722.75
2018-03-29T05:43:54.381Z,93731.20
2018-03-29T05:46:22.781Z,93735.66
2018-03-29T05:48:51.206Z,93733.47
2018-03-29T05:51:19.617Z,93733.03
2018-03-29T05:53:48.057Z,93730.90
2018-03-29T05:56:16.451Z,93743.13
2018-03-29T05:58:44.851Z,93747.34
2018-03-29T06:01:13.264Z,93733.74
2018-03-29T06:03:41.769Z,93741.81
2018-03-29T06:06:10.176Z,93755.06
2018-03-29T06:08:38.687Z,93762.08
2018-03-29T06:11:07.075Z,93752.66
2018-03-29T06:13:35.471Z,93753.22
2018-03-29T06:16:04.709Z,93752.58
2018-03-29T06:18:33.136Z,93756.58
2018-03-29T06:21:01.537Z,93755.63
2018-03-29T06:23:30.862Z,93765.11
2018-03-29T06:25:59.242Z,93759.00
2018-03-29T06:28:27.604Z,93762.19
2018-03-29T06:30:56.027Z,93770.72
2018-03-29T06:33:24.407Z,93771.47
2018-03-29T06:35:52.838Z,93775.31
2018-03-29T06:38:21.241Z,93777.81
2018-03-29T06:40:49.681Z,93772.22
2018-03-29T06:43:18.068Z,93770.34
2018-03-29T06:45:46.484Z,93780.95
2018-03-29T06:48:14.868Z,93778.80
2018-03-29T06:50:43.297Z,93776.34
2018-03-29T06:53:11.692Z,93774.47
2018-03-29T06:55:40.075Z,93773.72
2018-03-29T06:58:08.617Z,93773.80
2018-03-29T07:00:37.018Z,93766.09
2018-03-29T07:03:05.442Z,93763.24
2018-03-29T07:05:33.855Z,93769.75
2018-03-29T07:08:02.277Z,93768.19
2018-03-29T07:10:30.667Z,93764.58
2018-03-29T07:12:59.115Z,93763.49
2018-03-29T07:15:27.591Z,93759.50
2018-03-29T07:17:55.981Z,93749.06
2018-03-29T07:20:24.404Z,93750.58
2018-03-29T07:22:52.832Z,93753.61
2018-03-29T07:25:21.340Z,93752.63
2018-03-29T07:27:49.755Z,93746.07
2018-03-29T07:30:18.183Z,93747.36
2018-03-29T07:32:46.559Z,93741.12
2018-03-29T07:35:14.924Z,93742.53
2018-03-29T07:37:43.426Z,93741.92
2018-03-29T07:40:11.853Z,93751.36
2018-03-29T07:42:40.323Z,93763.91
2018-03-29T07:45:08.881Z,93762.45
2018-03-29T07:47:37.456Z,93767.39
2018-03-29T07:50:05.831Z,93758.83
2018-03-29T07:52:34.200Z,93769.20
2018-03-29T07:55:02.643Z,93774.31
2018-03-29T07:57:31.045Z,93781.35
2018-03-29T07:59:59.444Z,93775.23
2018-03-29T08:02:27.977Z,93786.78
2018-03-29T08:04:56.383Z,93782.45
2018-03-29T08:07:24.923Z,93785.91
2018-03-29T08:09:53.397Z,93788.47
2018-03-29T08:12:21.907Z,93784.42
2018-03-29T08:14:50.298Z,93791.63
2018-03-29T08:17:18.723Z,93790.96
2018-03-29T08:19:47.132Z,93786.23
2018-03-29T08:22:15.572Z,93787.14
2018-03-29T08:24:43.995Z,93787.59
2018-03-29T08:27:12.479Z,93787.25
2018-03-29T08:29:41.037Z,93782.47
2018-03-29T08:32:09.474Z,93784.69
2018-03-29T08:34:37.893Z,93791.56
2018-03-29T08:37:06.936Z,93786.72
2018-03-29T08:39:35.332Z,93788.50
2018-03-29T08:42:03.728Z,93798.24
2018-03-29T08:44:32.215Z,93802.72
2018-03-29T08:47:00.709Z,93796.84
2018-03-29T08:49:29.157Z,93803.71
2018-03-29T08:51:57.600Z,93806.19
2018-03-29T08:54:25.963Z,93821.22
2018-03-29T08:56:54.342Z,93824.03
2018-03-29T08:59:22.705Z,93828.86
2018-03-29T09:01:51.088Z,93828.57
2018-03-29T09:04:19.466Z,93830.14
2018-03-29T09:06:47.917Z,93834.80
2018-03-29T09:09:16.287Z,93848.44
2018-03-29T09:11:44.665Z,93846.91
2018-03-29T09:14:13.122Z,93858.63
2018-03-29T09:16:41.536Z,93852.96
2018-03-29T09:19:10.052Z,93850.00
2018-03-29T09:21:38.504Z,93855.11
2018-03-29T09:24:06.877Z,93860.45
2018-03-29T09:26:35.378Z,93859.26
2018-03-29T09:29:03.760Z,93859.49
2018-03-29T09:31:32.273Z,93867.91
2018-03-29T09:34:00.699Z,93864.59
2018-03-29T09:36:29.203Z,93867.19
2018-03-29T09:38:57.563Z,93870.63
2018-03-29T09:41:25.963Z,93866.22
2018-03-29T09:43:54.388Z,93874.57
2018-03-29T09:46:22.761Z,93872.67
2018-03-29T09:48:51.124Z,93865.72
2018-03-29T09:51:19.646Z,93865.31
2018-03-29T09:53:48.051Z,93876.70
2018-03-29T09:56:16.531Z,93869.47
2018-03-29T09:58:44.899Z,93864.08
2018-03-29T10:01:13.349Z,93867.16
2018-03-29T10:06:47.920Z,93862.06
2018-03-29T10:09:16.737Z,93867.64
2018-03-29T10:11:45.324Z,93871.73
2018-03-29T10:14:13.818Z,93871.41
2018-03-29T10:16:42.189Z,93872.84
2018-03-29T10:19:10.681Z,93870.76
2018-03-29T10:21:39.237Z,93870.91
2018-03-29T10:24:07.967Z,93869.59
2018-03-29T10:26:36.313Z,93872.53
2018-03-29T10:29:04.761Z,93873.87
2018-03-29T10:31:33.144Z,93868.82
2018-03-29T10:34:01.684Z,93875.22
2018-03-29T10:36:30.195Z,93873.80
2018-03-29T10:38:58.609Z,93871.75
2018-03-29T10:41:27.055Z,93875.81
2018-03-29T10:43:55.427Z,93873.78
2018-03-29T10:46:23.793Z,93877.98
2018-03-29T10:48:52.316Z,93888.68
2018-03-29T10:51:20.694Z,93880.65
2018-03-29T10:53:49.068Z,93873.93
2018-03-29T10:56:17.637Z,93886.14
2018-03-29T10:58:46.020Z,93877.70
2018-03-29T11:01:14.400Z,93871.16
2018-03-29T11:03:42.985Z,93869.27
2018-03-29T11:06:11.506Z,93872.41
2018-03-29T11:08:39.923Z,93870.36
2018-03-29T11:11:11.664Z,93868.55
2018-03-29T11:13:40.100Z,93867.84
2018-03-29T11:16:08.562Z,93873.92
2018-03-29T11:18:37.020Z,93880.03
2018-03-29T11:21:05.434Z,93877.84
2018-03-29T11:23:33.816Z,93872.39
2018-03-29T11:26:02.453Z,93876.44
2018-03-29T11:28:30.843Z,93879.05
2018-03-29T11:30:59.250Z,93874.09
2018-03-29T11:33:27.928Z,93866.61
2018-03-29T11:35:56.304Z,93869.69
2018-03-29T11:38:24.756Z,93872.93
2018-03-29T11:40:53.249Z,93879.08
2018-03-29T11:43:21.569Z,93876.66
2018-03-29T11:45:50.042Z,93877.44
2018-03-29T11:48:18.524Z,93875.67
2018-03-29T11:50:46.999Z,93884.33
2018-03-29T11:53:15.453Z,93881.78
2018-03-29T11:55:43.838Z,93876.36
2018-03-29T11:58:12.240Z,93874.84
2018-03-29T12:00:40.748Z,93870.32
2018-03-29T12:03:09.166Z,93869.65
2018-03-29T12:05:37.656Z,93876.80
2018-03-29T12:08:06.156Z,93882.11
2018-03-29T12:10:34.596Z,93883.19
2018-03-29T12:13:03.013Z,93877.88
2018-03-29T12:15:31.501Z,93878.08
2018-03-29T12:17:59.904Z,93873.82
2018-03-29T12:20:28.297Z,93873.13
2018-03-29T12:22:56.857Z,93876.89
2018-03-29T12:25:25.282Z,93879.64
2018-03-29T12:27:53.648Z,93876.58
2018-03-29T12:30:22.164Z,93881.02
2018-03-29T12:32:50.623Z,93876.97
2018-03-29T12:35:19.011Z,93881.02
2018-03-29T12:37:47.436Z,93878.14
2018-03-29T12:40:15.863Z,93877.74
2018-03-29T12:42:44.272Z,93876.72
2018-03-29T12:45:12.640Z,93875.63
2018-03-29T12:47:41.427Z,93860.98
2018-03-29T12:50:14.545Z,93864.41
2018-03-29T12:52:43.001Z,93869.62
2018-03-29T12:55:23.092Z,93868.72
2018-03-29T12:57:57.944Z,93862.33
2018-03-29T13:00:26.344Z,93864.38
2018-03-29T13:02:54.698Z,93870.24
2018-03-29T13:05:23.188Z,93871.23
2018-03-29T13:07:51.554Z,93873.27
2018-03-29T13:10:19.977Z,93872.52
2018-03-29T13:12:48.403Z,93873.69
2018-03-29T13:15:16.783Z,93876.67
2018-03-29T13:17:45.218Z,93874.03
2018-03-29T13:20:13.737Z,93875.05
2018-03-29T13:22:42.244Z,93867.44
2018-03-29T13:25:10.714Z,93864.31
2018-03-29T13:27:39.228Z,93863.80
2018-03-29T13:30:07.675Z,93862.41
2018-03-29T13:32:36.075Z,93852.52
2018-03-29T13:35:04.545Z,93850.19
2018-03-29T13:37:32.934Z,93854.84
2018-03-29T13:40:01.339Z,93851.23
2018-03-29T13:42:29.779Z,93838.64
2018-03-29T13:44:58.833Z,93846.55
2018-03-29T13:47:27.485Z,93842.28
2018-03-29T13:49:55.886Z,93852.34
2018-03-29T13:52:24.320Z,93857.17
2018-03-29T13:54:52.785Z,93861.59
2018-03-29T13:57:21.172Z,93866.03
2018-03-29T13:59:49.587Z,93869.64
2018-03-29T14:02:18.052Z,93887.55
2018-03-29T14:04:46.467Z,93895.05
2018-03-29T14:07:14.843Z,93904.15
2018-03-29T14:09:43.333Z,93905.46
2018-03-29T14:12:11.731Z,93916.97
2018-03-29T14:14:40.140Z,93918.59
2018-03-29T14:17:09.311Z,93920.61
2018-03-29T14:19:37.695Z,93921.61
2018-03-29T14:22:06.284Z,93916.57
2018-03-29T14:24:34.732Z,93915.40
2018-03-29T14:27:03.237Z,93914.75
2018-03-29T14:29:31.622Z,93921.96
2018-03-29T14:32:00.063Z,93911.22
2018-03-29T14:34:28.504Z,93909.70
2018-03-29T14:36:56.950Z,93903.11
2018-03-29T14:39:25.443Z,93905.42
2018-03-29T14:41:53.923Z,93902.70
2018-03-29T14:44:22.341Z,93905.47
2018-03-29T14:46:50.825Z,93901.97
2018-03-29T14:49:19.238Z,93902.00
2018-03-29T14:51:47.631Z,93900.19
2018-03-29T14:54:16.143Z,93908.50
2018-03-29T14:56:44.516Z,93892.05
2018-03-29T14:59:12.989Z,93889.84
2018-03-29T15:01:41.456Z,93883.50
2018-03-29T15:04:09.841Z,93870.50
2018-03-29T15:06:38.231Z,93873.86
2018-03-29T15:09:06.689Z,93869.37
2018-03-29T15:11:35.052Z,93865.36
2018-03-29T15:14:03.404Z,93862.62
2018-03-29T15:16:31.813Z,93862.90
2018-03-29T15:19:00.159Z,93861.33
2018-03-29T15:21:28.531Z,93854.05
2018-03-29T15:23:57.027Z,93853.34
2018-03-29T15:26:25.434Z,93854.09
2018-03-29T15:28:53.760Z,93853.13
2018-03-29T15:31:22.236Z,93855.70
2018-03-29T15:33:50.588Z,93853.47
2018-03-29T15:36:18.968Z,93853.16
2018-03-29T15:38:47.408Z,93859.91
2018-03-29T15:41:15.830Z,93860.38
2018-03-29T15:43:44.201Z,93863.06
2018-03-29T15:46:12.659Z,93869.39
2018-03-29T15:48:41.015Z,93866.28
2018-03-29T15:51:09.438Z,93876.70
2018-03-29T15:53:38.050Z,93869.36
2018-03-29T15:56:06.434Z,93869.00
2018-03-29T15:58:34.828Z,93873.61
2018-03-29T16:01:03.308Z,93868.02
2018-03-29T16:03:31.699Z,93875.27
2018-03-29T16:06:00.103Z,93879.68
2018-03-29T16:08:28.542Z,93880.13
2018-03-29T16:10:56.930Z,93880.91
2018-03-29T16:13:25.389Z,93883.63
2018-03-29T16:15:53.943Z,93881.87
2018-03-29T16:18:22.347Z,93884.19
2018-03-29T16:20:50.743Z,93886.02
2018-03-29T16:23:19.159Z,93891.09
2018-03-29T16:25:47.583Z,93887.40
2018-03-29T16:28:16.131Z,93891.70
2018-03-29T16:30:44.514Z,93893.36
2018-03-29T16:33:12.894Z,93893.69
2018-03-29T16:35:41.828Z,93895.83
2018-03-29T16:38:10.340Z,93902.52
2018-03-29T16:40:38.992Z,93901.78
2018-03-29T16:43:07.556Z,93900.94
2018-03-29T16:45:36.049Z,93899.83
2018-03-29T16:48:04.435Z,93901.27
2018-03-29T16:50:32.906Z,93905.14
2018-03-29T16:53:01.289Z,93905.80
2018-03-29T16:55:29.775Z,93903.59
2018-03-29T16:57:58.262Z,93907.73
2018-03-29T17:00:26.663Z,93908.12
2018-03-29T17:02:55.094Z,93903.48
2018-03-29T17:05:23.528Z,93909.46
2018-03-29T17:07:51.954Z,93911.22
2018-03-29T17:10:20.331Z,93909.93
2018-03-29T17:12:48.784Z,93909.94
2018-03-29T17:15:18.215Z,93912.91
2018-03-29T17:17:46.629Z,93917.70
2018-03-29T17:20:15.178Z,93921.06
2018-03-29T17:22:43.559Z,93924.99
2018-03-29T17:25:12.050Z,93917.70
2018-03-29T17:27:40.498Z,93913.56
2018-03-29T17:30:08.901Z,93917.03
2018-03-29T17:32:37.287Z,93921.08
2018-03-29T17:35:05.808Z,93929.78
2018-03-29T17:37:34.222Z,93926.48
2018-03-29T17:40:03.110Z,93923.55
2018-03-29T17:42:32.206Z,93925.50
2018-03-29T17:45:00.575Z,93932.78
2018-03-29T17:47:28.947Z,93935.75
2018-03-29T17:49:57.392Z,93938.18
2018-03-29T17:52:25.769Z,93946.22
2018-03-29T17:54:54.174Z,93942.36
2018-03-29T17:57:22.580Z,93939.09
2018-03-29T17:59:51.155Z,93943.77
2018-03-29T18:02:19.522Z,93951.27
2018-03-29T18:04:47.883Z,93953.98
2018-03-29T18:07:16.314Z,93950.63
2018-03-29T18:09:45.458Z,93958.11
2018-03-29T18:12:13.848Z,93961.84
2018-03-29T18:14:42.300Z,93965.66
2018-03-29T18:17:10.678Z,93974.65
2018-03-29T18:19:39.084Z,93978.45
2018-03-29T18:22:07.490Z,93966.98
2018-03-29T18:24:36.051Z,93973.84
2018-03-29T18:27:04.536Z,93978.59
2018-03-29T18:29:32.949Z,93980.41
2018-03-29T18:32:01.334Z,93981.58
2018-03-29T18:34:29.796Z,93983.77
2018-03-29T18:36:58.163Z,93996.77
2018-03-29T18:39:26.526Z,93999.68
2018-03-29T18:41:55.041Z,94002.77
2018-03-29T18:44:23.405Z,94013.93
2018-03-29T18:46:51.849Z,94014.59
2018-03-29T18:49:20.281Z,94020.75
2018-03-29T18:51:48.631Z,94017.09
2018-03-29T18:54:17.095Z,94019.60
2018-03-29T18:56:45.514Z,94014.96
2018-03-29T18:59:13.917Z,94023.16
2018-03-29T19:01:42.351Z,94029.03
2018-03-29T19:04:10.707Z,94021.72
2018-03-29T19:06:39.102Z,94034.52
2018-03-29T19:09:07.576Z,94036.17
2018-03-29T19:11:35.949Z,94032.53
2018-03-29T19:14:04.352Z,94039.97
2018-03-29T19:16:32.753Z,94043.99
2018-03-29T19:19:01.189Z,94039.72
2018-03-29T19:21:29.728Z,94041.23
2018-03-29T19:23:58.140Z,94037.37
2018-03-29T19:26:26.546Z,94041.75
2018-03-29T19:28:54.970Z,94039.66
2018-03-29T19:31:23.332Z,94040.53
2018-03-29T19:33:51.856Z,94044.96
2018-03-29T19:36:20.749Z,94048.83
2018-03-29T19:38:49.584Z,94047.22
2018-03-29T19:41:17.986Z,94049.95
2018-03-29T19:43:46.446Z,94051.46
2018-03-29T19:46:14.847Z,94053.82
2018-03-29T19:48:43.332Z,94050.11
2018-03-29T19:51:11.880Z,94051.78
2018-03-29T19:53:40.988Z,94052.70
2018-03-29T19:56:09.414Z,94050.41
2018-03-29T19:58:37.925Z,94051.59
2018-03-29T20:01:06.311Z,94048.42
2018-03-29T20:03:34.729Z,94046.19
2018-03-29T20:06:04.051Z,94053.63
2018-03-29T20:08:32.433Z,94045.83
2018-03-29T20:11:00.905Z,94047.39
2018-03-29T20:13:29.304Z,94047.02
2018-03-29T20:15:57.667Z,94048.25
2018-03-29T20:18:26.054Z,94052.36
2018-03-29T20:20:54.514Z,94048.77
2018-03-29T20:23:22.951Z,94043.70
2018-03-29T20:25:51.319Z,94039.19
2018-03-29T20:28:19.679Z,94036.73
2018-03-29T20:30:48.106Z,94040.03
2018-03-29T20:33:16.469Z,94035.83
2018-03-29T20:35:44.846Z,94035.02
2018-03-29T20:38:13.367Z,94032.45
2018-03-29T20:40:41.745Z,94029.02
2018-03-29T20:43:10.142Z,94026.47
2018-03-29T20:45:38.660Z,94033.48
2018-03-29T20:48:07.095Z,94024.41
2018-03-29T20:50:35.489Z,94029.78
2018-03-29T20:53:03.923Z,94028.38
2018-03-29T20:55:32.342Z,94031.72
2018-03-29T20:58:00.899Z,94027.95
2018-03-29T21:00:29.371Z,94024.54
2018-03-29T21:02:57.759Z,94026.05
2018-03-29T21:05:26.160Z,94025.05
2018-03-29T21:07:54.772Z,94025.09
2018-03-29T21:10:23.152Z,94026.94
2018-03-29T21:12:51.555Z,94025.97
2018-03-29T21:15:20.087Z,94021.30
2018-03-29T21:17:48.476Z,94020.81
2018-03-29T21:20:17.276Z,94024.30
2018-03-29T21:22:46.189Z,94025.24
2018-03-29T21:25:14.755Z,94033.63
2018-03-29T21:27:43.234Z,94036.30
2018-03-29T21:30:11.687Z,94035.20
2018-03-29T21:32:40.084Z,94041.09
2018-03-29T21:35:08.515Z,94032.55
2018-03-29T21:37:37.018Z,94043.77
2018-03-29T21:40:05.445Z,94035.05
2018-03-29T21:42:33.836Z,94037.52
2018-03-29T21:45:02.264Z,94045.63
2018-03-29T21:47:30.645Z,94045.11
2018-03-29T21:49:59.035Z,94048.20
2018-03-29T21:52:27.502Z,94043.95
2018-03-29T21:54:56.209Z,94041.09
2018-03-29T21:57:25.020Z,94042.07
2018-03-29T21:59:53.560Z,94042.16
2018-03-29T22:02:22.165Z,94039.41
2018-03-29T22:04:50.620Z,94046.69
2018-03-29T22:07:19.217Z,94050.20
2018-03-29T22:09:47.702Z,94046.05
2018-03-29T22:12:16.109Z,94052.55
2018-03-29T22:14:44.604Z,94052.17
2018-03-29T22:17:13.074Z,94049.27
2018-03-29T22:19:41.467Z,94046.23
2018-03-29T22:22:09.976Z,94044.81
2018-03-29T22:24:38.338Z,94042.16
2018-03-29T22:27:06.713Z,94038.98
2018-03-29T22:29:35.276Z,94034.00
2018-03-29T22:32:03.637Z,94043.95
2018-03-29T22:34:32.004Z,94044.55
2018-03-29T22:37:00.404Z,94048.50
2018-03-29T22:39:28.868Z,94048.72
2018-03-29T22:41:57.271Z,94044.25
2018-03-29T22:44:25.812Z,94045.11
2018-03-29T22:46:54.176Z,94040.87
2018-03-29T22:49:22.573Z,94036.42
2018-03-29T22:51:51.044Z,94035.26
2018-03-29T22:54:19.426Z,94038.30
2018-03-29T22:56:47.840Z,94033.69
2018-03-29T22:59:16.308Z,94034.23
2018-03-29T23:01:44.692Z,94039.59
2018-03-29T23:04:13.060Z,94041.43
2018-03-29T23:06:41.636Z,94042.19
2018-03-29T23:09:10.053Z,94041.45
2018-03-29T23:11:38.488Z,94044.91
2018-03-29T23:14:06.997Z,94050.16
2018-03-29T23:16:39.007Z,94043.22
2018-03-29T23:19:09.318Z,94049.78
2018-03-29T23:21:37.715Z,94039.19
2018-03-29T23:24:06.104Z,94040.09
2018-03-29T23:26:34.647Z,94039.19
2018-03-29T23:29:03.027Z,94033.50
2018-03-29T23:31:31.380Z,94039.22
2018-03-29T23:33:59.910Z,94036.07
2018-03-29T23:36:28.345Z,94042.23
2018-03-29T23:38:56.733Z,94039.13
2018-03-29T23:41:25.372Z,94039.69
2018-03-29T23:43:53.892Z,94034.11
2018-03-29T23:46:22.292Z,94036.02
2018-03-29T23:48:50.743Z,94041.03
2018-03-29T23:51:19.233Z,94039.09
2018-03-29T23:53:47.663Z,94036.19
2018-03-29T23:56:16.100Z,94030.84
2018-03-29T23:58:44.466Z,94028.19
